sensor_id;sensor_type;location;lat;lon;timestamp;pressure;altitude;pressure_sealevel;temperature;humidity
47104;BME280;32853;52.164;5.400;2022-08-11T00:00:08;102271.63;;;22.53;100.00
47104;BME280;32853;52.164;5.400;2022-08-11T00:02:37;102308.25;;;22.76;100.00
47104;BME280;32853;52.164;5.400;2022-08-11T00:05:12;102307.78;;;22.70;100.00
47104;BME280;32853;52.164;5.400;2022-08-11T00:07:49;102248.84;;;22.35;100.00
47104;BME280;32853;52.164;5.400;2022-08-11T00:10:19;102267.25;;;22.52;100.00
47104;BME280;32853;52.164;5.400;2022-08-11T00:12:54;102248.53;;;22.39;100.00
47104;BME280;32853;52.164;5.400;2022-08-11T00:15:22;102273.31;;;22.54;100.00
47104;BME280;32853;52.164;5.400;2022-08-11T00:17:49;102306.81;;;22.58;100.00
47104;BME280;32853;52.164;5.400;2022-08-11T00:20:20;102236.97;;;22.13;100.00
47104;BME280;32853;52.164;5.400;2022-08-11T00:22:47;102245.16;;;22.10;100.00
47104;BME280;32853;52.164;5.400;2022-08-11T00:25:18;102294.72;;;22.40;100.00
47104;BME280;32853;52.164;5.400;2022-08-11T00:27:45;102277.81;;;22.26;100.00
47104;BME280;32853;52.164;5.400;2022-08-11T00:30:11;102299.81;;;22.30;100.00
47104;BME280;32853;52.164;5.400;2022-08-11T00:32:39;102307.50;;;22.35;100.00
47104;BME280;32853;52.164;5.400;2022-08-11T00:35:07;102275.22;;;22.12;100.00
47104;BME280;32853;52.164;5.400;2022-08-11T00:37:36;102256.38;;;22.01;100.00
47104;BME280;32853;52.164;5.400;2022-08-11T00:40:07;102280.75;;;22.09;100.00
47104;BME280;32853;52.164;5.400;2022-08-11T00:45:51;102270.66;;;22.00;100.00
47104;BME280;32853;52.164;5.400;2022-08-11T00:48:27;102317.47;;;22.18;100.00
47104;BME280;32853;52.164;5.400;2022-08-11T01:07:40;102309.03;;;21.97;100.00
47104;BME280;32853;52.164;5.400;2022-08-11T01:13:13;102313.53;;;21.68;100.00
47104;BME280;32853;52.164;5.400;2022-08-11T01:19:06;102284.47;;;21.51;100.00
47104;BME280;32853;52.164;5.400;2022-08-11T01:22:14;102265.25;;;21.46;100.00
47104;BME280;32853;52.164;5.400;2022-08-11T01:25:18;102302.59;;;21.59;100.00
47104;BME280;32853;52.164;5.400;2022-08-11T01:41:49;102305.09;;;21.33;100.00
47104;BME280;32853;52.164;5.400;2022-08-11T01:48:18;102284.88;;;21.31;100.00
47104;BME280;32853;52.164;5.400;2022-08-11T01:51:11;102302.25;;;21.36;100.00
47104;BME280;32853;52.164;5.400;2022-08-11T01:53:50;102301.38;;;21.36;100.00
47104;BME280;32853;52.164;5.400;2022-08-11T01:56:32;102290.44;;;21.26;100.00
47104;BME280;32853;52.164;5.400;2022-08-11T01:59:08;102303.66;;;21.28;100.00
47104;BME280;32853;52.164;5.400;2022-08-11T02:04:38;102292.78;;;21.02;100.00
47104;BME280;32853;52.164;5.400;2022-08-11T02:12:43;102296.59;;;20.98;100.00
47104;BME280;32853;52.164;5.400;2022-08-11T02:18:15;102295.53;;;21.01;100.00
47104;BME280;32853;52.164;5.400;2022-08-11T02:20:51;102290.09;;;20.88;100.00
47104;BME280;32853;52.164;5.400;2022-08-11T02:23:53;102288.94;;;20.78;100.00
47104;BME280;32853;52.164;5.400;2022-08-11T02:26:22;102259.47;;;20.52;100.00
47104;BME280;32853;52.164;5.400;2022-08-11T02:34:43;102294.81;;;20.69;100.00
47104;BME280;32853;52.164;5.400;2022-08-11T02:45:52;102287.97;;;20.65;100.00
47104;BME280;32853;52.164;5.400;2022-08-11T02:48:31;102283.59;;;20.64;100.00
47104;BME280;32853;52.164;5.400;2022-08-11T02:57:42;102277.69;;;20.58;100.00
47104;BME280;32853;52.164;5.400;2022-08-11T03:00:14;102266.56;;;20.36;100.00
47104;BME280;32853;52.164;5.400;2022-08-11T03:08:38;102278.91;;;20.53;100.00
47104;BME280;32853;52.164;5.400;2022-08-11T03:14:13;102284.13;;;20.54;100.00
47104;BME280;32853;52.164;5.400;2022-08-11T03:17:21;102272.56;;;20.55;100.00
47104;BME280;32853;52.164;5.400;2022-08-11T03:26:03;102222.31;;;20.05;100.00
47104;BME280;32853;52.164;5.400;2022-08-11T03:28:59;102266.25;;;20.42;100.00
47104;BME280;32853;52.164;5.400;2022-08-11T03:31:30;102279.34;;;20.45;100.00
47104;BME280;32853;52.164;5.400;2022-08-11T03:34:08;102254.53;;;20.15;100.00
47104;BME280;32853;52.164;5.400;2022-08-11T03:36:57;102273.53;;;20.23;100.00
47104;BME280;32853;52.164;5.400;2022-08-11T03:39:41;102280.84;;;20.19;100.00
47104;BME280;32853;52.164;5.400;2022-08-11T03:42:27;102273.41;;;20.10;100.00
47104;BME280;32853;52.164;5.400;2022-08-11T03:45:25;102270.56;;;20.13;100.00
47104;BME280;32853;52.164;5.400;2022-08-11T03:59:39;102272.53;;;19.94;100.00
47104;BME280;32853;52.164;5.400;2022-08-11T04:11:03;102278.88;;;19.91;100.00
47104;BME280;32853;52.164;5.400;2022-08-11T04:17:16;102264.84;;;19.73;100.00
47104;BME280;32853;52.164;5.400;2022-08-11T04:20:18;102266.13;;;19.82;100.00
47104;BME280;32853;52.164;5.400;2022-08-11T04:25:28;102272.81;;;19.73;100.00
47104;BME280;32853;52.164;5.400;2022-08-11T04:28:23;102270.41;;;19.69;100.00
47104;BME280;32853;52.164;5.400;2022-08-11T04:40:33;102258.59;;;19.59;100.00
47104;BME280;32853;52.164;5.400;2022-08-11T04:52:00;102258.84;;;19.70;100.00
47104;BME280;32853;52.164;5.400;2022-08-11T05:13:44;102227.47;;;19.45;100.00
47104;BME280;32853;52.164;5.400;2022-08-11T05:16:42;102244.53;;;19.57;100.00
47104;BME280;32853;52.164;5.400;2022-08-11T05:19:30;102259.34;;;19.61;100.00
47104;BME280;32853;52.164;5.400;2022-08-11T05:22:17;102173.78;;;19.08;100.00
47104;BME280;32853;52.164;5.400;2022-08-11T05:25:19;102263.56;;;19.65;100.00
47104;BME280;32853;52.164;5.400;2022-08-11T05:28:08;102257.13;;;19.69;100.00
47104;BME280;32853;52.164;5.400;2022-08-11T05:30:57;102227.47;;;19.45;100.00
47104;BME280;32853;52.164;5.400;2022-08-11T05:33:51;102210.03;;;19.41;100.00
47104;BME280;32853;52.164;5.400;2022-08-11T05:36:46;102114.06;;;18.85;100.00
47104;BME280;32853;52.164;5.400;2022-08-11T05:39:15;102152.38;;;18.96;100.00
47104;BME280;32853;52.164;5.400;2022-08-11T05:42:01;102278.28;;;19.70;100.00
47104;BME280;32853;52.164;5.400;2022-08-11T05:44:48;102269.03;;;19.78;100.00
47104;BME280;32853;52.164;5.400;2022-08-11T05:47:35;102271.03;;;19.74;100.00
47104;BME280;32853;52.164;5.400;2022-08-11T05:50:21;102151.44;;;18.97;100.00
47104;BME280;32853;52.164;5.400;2022-08-11T05:53:09;102222.06;;;19.47;100.00
47104;BME280;32853;52.164;5.400;2022-08-11T05:55:55;102285.66;;;19.97;100.00
47104;BME280;32853;52.164;5.400;2022-08-11T05:58:41;102277.84;;;19.94;100.00
47104;BME280;32853;52.164;5.400;2022-08-11T06:01:08;102266.56;;;19.90;100.00
47104;BME280;32853;52.164;5.400;2022-08-11T06:03:35;102240.03;;;19.75;100.00
47104;BME280;32853;52.164;5.400;2022-08-11T06:06:22;102242.84;;;19.87;100.00
47104;BME280;32853;52.164;5.400;2022-08-11T06:08:49;102166.63;;;19.42;100.00
47104;BME280;32853;52.164;5.400;2022-08-11T06:11:17;102258.50;;;20.08;100.00
47104;BME280;32853;52.164;5.400;2022-08-11T06:13:44;102291.91;;;20.12;100.00
47104;BME280;32853;52.164;5.400;2022-08-11T06:16:12;102257.28;;;20.13;100.00
47104;BME280;32853;52.164;5.400;2022-08-11T06:18:44;102266.47;;;20.08;100.00
47104;BME280;32853;52.164;5.400;2022-08-11T06:21:10;102203.63;;;19.77;100.00
47104;BME280;32853;52.164;5.400;2022-08-11T06:23:36;102251.28;;;20.10;100.00
47104;BME280;32853;52.164;5.400;2022-08-11T06:26:07;102296.34;;;20.43;100.00
47104;BME280;32853;52.164;5.400;2022-08-11T06:28:36;102216.63;;;19.97;100.00
47104;BME280;32853;52.164;5.400;2022-08-11T06:31:35;102278.81;;;20.54;100.00
47104;BME280;32853;52.164;5.400;2022-08-11T06:34:11;102282.25;;;20.56;100.00
47104;BME280;32853;52.164;5.400;2022-08-11T06:37:09;102240.53;;;20.43;100.00
47104;BME280;32853;52.164;5.400;2022-08-11T06:42:53;102207.41;;;20.48;100.00
47104;BME280;32853;52.164;5.400;2022-08-11T06:45:28;102254.78;;;20.86;100.00
47104;BME280;32853;52.164;5.400;2022-08-11T06:47:55;102279.97;;;21.09;100.00
47104;BME280;32853;52.164;5.400;2022-08-11T06:50:25;102120.28;;;20.09;100.00
47104;BME280;32853;52.164;5.400;2022-08-11T06:53:18;102276.47;;;21.08;100.00
47104;BME280;32853;52.164;5.400;2022-08-11T06:55:46;102124.22;;;20.32;100.00
47104;BME280;32853;52.164;5.400;2022-08-11T06:58:36;102231.34;;;21.07;100.00
47104;BME280;32853;52.164;5.400;2022-08-11T07:04:20;102277.63;;;21.47;100.00
47104;BME280;32853;52.164;5.400;2022-08-11T07:10:02;102260.91;;;21.86;100.00
47104;BME280;32853;52.164;5.400;2022-08-11T07:12:52;102248.13;;;21.91;100.00
47104;BME280;32853;52.164;5.400;2022-08-11T07:15:40;102231.03;;;21.95;100.00
47104;BME280;32853;52.164;5.400;2022-08-11T07:18:07;102261.50;;;22.18;100.00
47104;BME280;32853;52.164;5.400;2022-08-11T07:20:54;102255.72;;;22.12;100.00
47104;BME280;32853;52.164;5.400;2022-08-11T07:23:49;102269.13;;;22.50;100.00
47104;BME280;32853;52.164;5.400;2022-08-11T07:26:40;102265.09;;;22.57;100.00
47104;BME280;32853;52.164;5.400;2022-08-11T07:29:27;102268.75;;;22.81;100.00
47104;BME280;32853;52.164;5.400;2022-08-11T07:31:55;102245.84;;;22.92;100.00
47104;BME280;32853;52.164;5.400;2022-08-11T07:34:34;102273.31;;;23.06;100.00
47104;BME280;32853;52.164;5.400;2022-08-11T07:37:09;102281.81;;;23.24;100.00
47104;BME280;32853;52.164;5.400;2022-08-11T07:39:37;102235.38;;;23.14;100.00
47104;BME280;32853;52.164;5.400;2022-08-11T07:42:09;102200.69;;;23.14;100.00
47104;BME280;32853;52.164;5.400;2022-08-11T07:44:35;102282.09;;;23.70;100.00
47104;BME280;32853;52.164;5.400;2022-08-11T07:47:21;102269.94;;;23.90;100.00
47104;BME280;32853;52.164;5.400;2022-08-11T07:50:08;102259.13;;;24.16;100.00
47104;BME280;32853;52.164;5.400;2022-08-11T07:52:53;102255.41;;;24.42;100.00
47104;BME280;32853;52.164;5.400;2022-08-11T07:55:20;102270.63;;;24.53;100.00
47104;BME280;32853;52.164;5.400;2022-08-11T07:57:46;102256.97;;;24.45;100.00
47104;BME280;32853;52.164;5.400;2022-08-11T08:00:57;102245.22;;;24.58;100.00
47104;BME280;32853;52.164;5.400;2022-08-11T08:03:42;102230.88;;;24.59;100.00
47104;BME280;32853;52.164;5.400;2022-08-11T08:06:28;102221.81;;;24.73;100.00
47104;BME280;32853;52.164;5.400;2022-08-11T08:09:20;102258.38;;;25.19;91.15
47104;BME280;32853;52.164;5.400;2022-08-11T08:12:08;102250.81;;;25.24;91.73
47104;BME280;32853;52.164;5.400;2022-08-11T08:14:54;102267.50;;;25.28;88.85
47104;BME280;32853;52.164;5.400;2022-08-11T08:18:00;102230.75;;;25.07;90.36
47104;BME280;32853;52.164;5.400;2022-08-11T08:20:51;102261.38;;;25.48;88.62
47104;BME280;32853;52.164;5.400;2022-08-11T08:23:18;102251.88;;;25.55;81.69
47104;BME280;32853;52.164;5.400;2022-08-11T08:25:57;102261.34;;;25.82;86.79
47104;BME280;32853;52.164;5.400;2022-08-11T08:28:26;102272.00;;;26.04;84.77
47104;BME280;32853;52.164;5.400;2022-08-11T08:30:53;102272.28;;;26.01;78.56
47104;BME280;32853;52.164;5.400;2022-08-11T08:33:23;102265.31;;;26.10;79.25
47104;BME280;32853;52.164;5.400;2022-08-11T08:36:01;102263.19;;;26.13;77.26
47104;BME280;32853;52.164;5.400;2022-08-11T08:38:46;102267.53;;;26.25;78.27
47104;BME280;32853;52.164;5.400;2022-08-11T08:41:14;102224.53;;;26.16;74.03
47104;BME280;32853;52.164;5.400;2022-08-11T08:43:42;102244.84;;;26.41;74.60
47104;BME280;32853;52.164;5.400;2022-08-11T08:46:09;102249.94;;;26.44;71.71
47104;BME280;32853;52.164;5.400;2022-08-11T08:48:36;102236.69;;;26.31;76.00
47104;BME280;32853;52.164;5.400;2022-08-11T08:51:09;102254.38;;;26.75;77.59
47104;BME280;32853;52.164;5.400;2022-08-11T08:53:59;102224.53;;;26.69;69.60
47104;BME280;32853;52.164;5.400;2022-08-11T08:56:27;102236.94;;;26.90;69.44
47104;BME280;32853;52.164;5.400;2022-08-11T08:58:57;102256.63;;;27.21;67.70
47104;BME280;32853;52.164;5.400;2022-08-11T09:01:24;102245.69;;;27.44;65.13
47104;BME280;32853;52.164;5.400;2022-08-11T09:03:53;102218.88;;;27.23;61.41
47104;BME280;32853;52.164;5.400;2022-08-11T09:06:19;102242.88;;;27.55;63.72
47104;BME280;32853;52.164;5.400;2022-08-11T09:08:44;102254.28;;;27.88;61.04
47104;BME280;32853;52.164;5.400;2022-08-11T09:11:12;102228.38;;;27.77;60.60
47104;BME280;32853;52.164;5.400;2022-08-11T09:13:57;102259.41;;;28.00;59.88
47104;BME280;32853;52.164;5.400;2022-08-11T09:16:23;102210.84;;;28.02;58.36
47104;BME280;32853;52.164;5.400;2022-08-11T09:18:50;102239.16;;;28.06;58.28
47104;BME280;32853;52.164;5.400;2022-08-11T09:21:17;102236.03;;;28.11;57.84
47104;BME280;32853;52.164;5.400;2022-08-11T09:23:49;102251.78;;;28.44;57.49
47104;BME280;32853;52.164;5.400;2022-08-11T09:26:34;102230.38;;;28.52;53.87
47104;BME280;32853;52.164;5.400;2022-08-11T09:29:30;102205.31;;;28.42;55.29
47104;BME280;32853;52.164;5.400;2022-08-11T09:31:56;102244.06;;;28.78;54.95
47104;BME280;32853;52.164;5.400;2022-08-11T09:34:23;102186.19;;;28.92;53.43
47104;BME280;32853;52.164;5.400;2022-08-11T09:36:50;102196.78;;;29.03;52.79
47104;BME280;32853;52.164;5.400;2022-08-11T09:39:36;102189.03;;;29.28;52.30
47104;BME280;32853;52.164;5.400;2022-08-11T09:42:22;102140.84;;;28.87;52.74
47104;BME280;32853;52.164;5.400;2022-08-11T09:45:10;102181.97;;;29.44;53.47
47104;BME280;32853;52.164;5.400;2022-08-11T09:47:36;102177.72;;;29.14;50.60
47104;BME280;32853;52.164;5.400;2022-08-11T09:50:03;102181.72;;;29.38;50.94
47104;BME280;32853;52.164;5.400;2022-08-11T09:52:36;102223.63;;;29.77;49.38
47104;BME280;32853;52.164;5.400;2022-08-11T09:55:02;102222.00;;;29.85;47.61
47104;BME280;32853;52.164;5.400;2022-08-11T09:57:37;102207.91;;;29.91;46.93
47104;BME280;32853;52.164;5.400;2022-08-11T10:00:27;102208.94;;;30.07;46.86
47104;BME280;32853;52.164;5.400;2022-08-11T10:02:54;102190.34;;;30.04;44.02
47104;BME280;32853;52.164;5.400;2022-08-11T10:05:21;102194.03;;;30.21;42.76
47104;BME280;32853;52.164;5.400;2022-08-11T10:08:08;102219.81;;;30.42;42.31
47104;BME280;32853;52.164;5.400;2022-08-11T10:10:37;102195.72;;;30.48;41.94
47104;BME280;32853;52.164;5.400;2022-08-11T10:13:09;102180.19;;;30.42;41.23
47104;BME280;32853;52.164;5.400;2022-08-11T10:15:36;102179.22;;;30.25;39.94
47104;BME280;32853;52.164;5.400;2022-08-11T10:18:12;102201.53;;;30.53;39.93
47104;BME280;32853;52.164;5.400;2022-08-11T10:21:24;102191.63;;;30.62;39.39
47104;BME280;32853;52.164;5.400;2022-08-11T10:23:55;102206.94;;;30.79;38.46
47104;BME280;32853;52.164;5.400;2022-08-11T10:26:42;102187.72;;;30.82;37.86
47104;BME280;32853;52.164;5.400;2022-08-11T10:29:24;102204.97;;;30.89;37.91
47104;BME280;32853;52.164;5.400;2022-08-11T10:32:10;102173.25;;;31.00;37.23
47104;BME280;32853;52.164;5.400;2022-08-11T10:34:56;102202.94;;;31.26;36.90
47104;BME280;32853;52.164;5.400;2022-08-11T10:37:23;102174.16;;;31.08;35.38
47104;BME280;32853;52.164;5.400;2022-08-11T10:39:49;102129.81;;;30.59;35.31
47104;BME280;32853;52.164;5.400;2022-08-11T10:42:15;102185.53;;;31.20;35.89
47104;BME280;32853;52.164;5.400;2022-08-11T10:45:03;102196.38;;;31.28;35.89
47104;BME280;32853;52.164;5.400;2022-08-11T10:47:51;102196.03;;;31.31;35.54
47104;BME280;32853;52.164;5.400;2022-08-11T10:50:17;102156.34;;;31.48;36.35
47104;BME280;32853;52.164;5.400;2022-08-11T10:53:02;102180.44;;;31.92;34.82
47104;BME280;32853;52.164;5.400;2022-08-11T10:55:47;102177.56;;;32.01;34.54
47104;BME280;32853;52.164;5.400;2022-08-11T10:58:31;102123.94;;;31.56;34.25
47104;BME280;32853;52.164;5.400;2022-08-11T11:01:32;102185.53;;;32.35;34.83
47104;BME280;32853;52.164;5.400;2022-08-11T11:04:04;102172.69;;;32.29;33.40
47104;BME280;32853;52.164;5.400;2022-08-11T11:09:27;102164.00;;;32.26;33.99
47104;BME280;32853;52.164;5.400;2022-08-11T11:12:09;102159.47;;;32.18;33.94
47104;BME280;32853;52.164;5.400;2022-08-11T11:14:56;102165.22;;;32.23;33.75
47104;BME280;32853;52.164;5.400;2022-08-11T11:17:52;102151.53;;;32.17;33.86
47104;BME280;32853;52.164;5.400;2022-08-11T11:20:24;102167.94;;;32.31;33.32
47104;BME280;32853;52.164;5.400;2022-08-11T11:22:54;102157.22;;;32.54;33.57
47104;BME280;32853;52.164;5.400;2022-08-11T11:25:27;102129.13;;;32.55;33.12
47104;BME280;32853;52.164;5.400;2022-08-11T11:31:12;102124.97;;;32.76;32.59
47104;BME280;32853;52.164;5.400;2022-08-11T11:36:43;102117.28;;;33.04;32.37
47104;BME280;32853;52.164;5.400;2022-08-11T11:39:10;102139.00;;;33.27;32.19
47104;BME280;32853;52.164;5.400;2022-08-11T11:41:35;102149.81;;;33.58;32.31
47104;BME280;32853;52.164;5.400;2022-08-11T11:44:01;102128.25;;;33.33;31.19
47104;BME280;32853;52.164;5.400;2022-08-11T11:46:28;102146.34;;;33.49;31.75
47104;BME280;32853;52.164;5.400;2022-08-11T11:48:55;102123.84;;;33.32;32.29
47104;BME280;32853;52.164;5.400;2022-08-11T11:51:22;102138.91;;;33.43;32.39
47104;BME280;32853;52.164;5.400;2022-08-11T11:53:48;102144.38;;;33.35;31.67
47104;BME280;32853;52.164;5.400;2022-08-11T11:56:14;102150.38;;;33.53;31.82
47104;BME280;32853;52.164;5.400;2022-08-11T11:58:41;102101.50;;;33.38;30.97
47104;BME280;32853;52.164;5.400;2022-08-11T12:01:26;102140.53;;;33.75;30.78
47104;BME280;32853;52.164;5.400;2022-08-11T12:03:53;102135.09;;;33.75;30.83
47104;BME280;32853;52.164;5.400;2022-08-11T12:06:21;102114.81;;;33.86;30.95
47104;BME280;32853;52.164;5.400;2022-08-11T12:08:49;102107.84;;;33.91;30.41
47104;BME280;32853;52.164;5.400;2022-08-11T12:11:18;102103.53;;;33.59;30.20
47104;BME280;32853;52.164;5.400;2022-08-11T12:14:04;102125.72;;;33.40;30.24
47104;BME280;32853;52.164;5.400;2022-08-11T12:16:30;102036.88;;;32.88;30.17
47104;BME280;32853;52.164;5.400;2022-08-11T12:18:58;102127.78;;;33.30;30.42
47104;BME280;32853;52.164;5.400;2022-08-11T12:21:26;102027.88;;;32.96;30.84
47104;BME280;32853;52.164;5.400;2022-08-11T12:23:54;102121.78;;;33.65;30.21
47104;BME280;32853;52.164;5.400;2022-08-11T12:26:39;102100.06;;;33.65;30.71
47104;BME280;32853;52.164;5.400;2022-08-11T12:29:16;102103.56;;;33.97;29.90
47104;BME280;32853;52.164;5.400;2022-08-11T12:31:44;102092.50;;;33.98;29.15
47104;BME280;32853;52.164;5.400;2022-08-11T12:34:11;102105.63;;;34.09;29.79
47104;BME280;32853;52.164;5.400;2022-08-11T12:36:39;102079.91;;;34.20;29.37
47104;BME280;32853;52.164;5.400;2022-08-11T12:39:08;102098.25;;;34.33;29.29
47104;BME280;32853;52.164;5.400;2022-08-11T12:41:36;102072.72;;;34.42;29.92
47104;BME280;32853;52.164;5.400;2022-08-11T12:44:25;102072.50;;;34.58;28.86
47104;BME280;32853;52.164;5.400;2022-08-11T12:47:14;102091.16;;;34.61;29.48
47104;BME280;32853;52.164;5.400;2022-08-11T12:49:44;102073.47;;;34.51;28.86
47104;BME280;32853;52.164;5.400;2022-08-11T12:52:40;102076.56;;;34.48;29.52
47104;BME280;32853;52.164;5.400;2022-08-11T12:55:13;102066.44;;;34.42;28.76
47104;BME280;32853;52.164;5.400;2022-08-11T12:58:04;102081.50;;;34.44;28.75
47104;BME280;32853;52.164;5.400;2022-08-11T13:00:46;102039.25;;;34.56;29.14
47104;BME280;32853;52.164;5.400;2022-08-11T13:03:32;102006.34;;;34.36;28.02
47104;BME280;32853;52.164;5.400;2022-08-11T13:06:18;102070.03;;;34.78;28.76
47104;BME280;32853;52.164;5.400;2022-08-11T13:08:45;102049.06;;;34.57;29.25
47104;BME280;32853;52.164;5.400;2022-08-11T13:11:12;102044.53;;;34.79;29.03
47104;BME280;32853;52.164;5.400;2022-08-11T13:13:59;102032.38;;;34.75;28.53
47104;BME280;32853;52.164;5.400;2022-08-11T13:16:28;102063.47;;;34.87;27.50
47104;BME280;32853;52.164;5.400;2022-08-11T13:18:56;102045.31;;;34.73;27.63
47104;BME280;32853;52.164;5.400;2022-08-11T13:21:23;102043.81;;;34.71;28.28
47104;BME280;32853;52.164;5.400;2022-08-11T13:23:51;102043.25;;;34.75;27.74
47104;BME280;32853;52.164;5.400;2022-08-11T13:26:18;102024.81;;;34.56;27.95
47104;BME280;32853;52.164;5.400;2022-08-11T13:28:43;102059.44;;;34.83;27.50
47104;BME280;32853;52.164;5.400;2022-08-11T13:31:09;102046.06;;;34.67;26.88
47104;BME280;32853;52.164;5.400;2022-08-11T13:33:40;102036.94;;;34.89;27.83
47104;BME280;32853;52.164;5.400;2022-08-11T13:36:06;102033.84;;;35.14;28.01
47104;BME280;32853;52.164;5.400;2022-08-11T13:38:32;102016.88;;;35.33;28.44
47104;BME280;32853;52.164;5.400;2022-08-11T13:40:59;102014.97;;;35.48;27.16
47104;BME280;32853;52.164;5.400;2022-08-11T13:43:25;102026.25;;;35.73;26.99
47104;BME280;32853;52.164;5.400;2022-08-11T13:45:51;102037.59;;;35.34;27.56
47104;BME280;32853;52.164;5.400;2022-08-11T13:48:37;102036.22;;;35.38;27.64
47104;BME280;32853;52.164;5.400;2022-08-11T13:51:03;102041.03;;;35.21;27.67
47104;BME280;32853;52.164;5.400;2022-08-11T13:53:47;102028.28;;;35.01;27.54
47104;BME280;32853;52.164;5.400;2022-08-11T13:56:13;102040.31;;;34.91;27.01
47104;BME280;32853;52.164;5.400;2022-08-11T13:58:38;102031.41;;;35.19;27.55
47104;BME280;32853;52.164;5.400;2022-08-11T14:01:05;102005.44;;;34.95;27.41
47104;BME280;32853;52.164;5.400;2022-08-11T14:03:31;102004.94;;;34.70;28.07
47104;BME280;32853;52.164;5.400;2022-08-11T14:05:59;102004.41;;;34.96;27.61
47104;BME280;32853;52.164;5.400;2022-08-11T14:08:31;102011.41;;;35.05;27.26
47104;BME280;32853;52.164;5.400;2022-08-11T14:11:04;102033.66;;;35.37;27.90
47104;BME280;32853;52.164;5.400;2022-08-11T14:13:50;102019.72;;;35.46;27.49
47104;BME280;32853;52.164;5.400;2022-08-11T14:16:29;101999.50;;;35.34;27.05
47104;BME280;32853;52.164;5.400;2022-08-11T14:18:59;101988.09;;;35.39;27.83
47104;BME280;32853;52.164;5.400;2022-08-11T14:21:26;101980.94;;;35.66;27.29
47104;BME280;32853;52.164;5.400;2022-08-11T14:24:12;102008.50;;;35.84;27.39
47104;BME280;32853;52.164;5.400;2022-08-11T14:26:38;102010.72;;;35.46;26.83
47104;BME280;32853;52.164;5.400;2022-08-11T14:29:10;101998.25;;;35.09;27.59
47104;BME280;32853;52.164;5.400;2022-08-11T14:31:42;102001.09;;;35.43;27.20
47104;BME280;32853;52.164;5.400;2022-08-11T14:34:09;101982.31;;;35.27;27.81
47104;BME280;32853;52.164;5.400;2022-08-11T14:36:39;101996.50;;;35.72;27.31
47104;BME280;32853;52.164;5.400;2022-08-11T14:39:17;101968.88;;;35.47;27.48
47104;BME280;32853;52.164;5.400;2022-08-11T14:41:46;101982.66;;;35.39;28.11
47104;BME280;32853;52.164;5.400;2022-08-11T14:44:50;101975.31;;;35.18;27.90
47104;BME280;32853;52.164;5.400;2022-08-11T14:47:40;101930.19;;;34.81;27.21
47104;BME280;32853;52.164;5.400;2022-08-11T14:50:08;101973.78;;;35.09;27.58
47104;BME280;32853;52.164;5.400;2022-08-11T14:52:42;101891.31;;;34.59;28.02
47104;BME280;32853;52.164;5.400;2022-08-11T14:55:09;101947.44;;;34.88;28.85
47104;BME280;32853;52.164;5.400;2022-08-11T14:57:55;101945.59;;;34.74;28.07
47104;BME280;32853;52.164;5.400;2022-08-11T15:00:20;101980.91;;;34.88;28.90
47104;BME280;32853;52.164;5.400;2022-08-11T15:02:47;101923.63;;;34.03;29.20
47104;BME280;32853;52.164;5.400;2022-08-11T15:05:35;101975.97;;;34.41;29.24
47104;BME280;32853;52.164;5.400;2022-08-11T15:08:01;101958.91;;;34.32;28.92
47104;BME280;32853;52.164;5.400;2022-08-11T15:10:26;101980.16;;;34.14;29.61
47104;BME280;32853;52.164;5.400;2022-08-11T15:12:55;101881.03;;;33.30;30.23
47104;BME280;32853;52.164;5.400;2022-08-11T15:15:21;101914.56;;;33.66;30.00
47104;BME280;32853;52.164;5.400;2022-08-11T15:18:06;101888.47;;;33.65;30.77
47104;BME280;32853;52.164;5.400;2022-08-11T15:20:34;101972.13;;;33.91;30.57
47104;BME280;32853;52.164;5.400;2022-08-11T15:23:18;101904.38;;;33.39;29.75
47104;BME280;32853;52.164;5.400;2022-08-11T15:26:09;101890.19;;;33.29;31.27
47104;BME280;32853;52.164;5.400;2022-08-11T15:28:45;101916.06;;;33.16;31.12
47104;BME280;32853;52.164;5.400;2022-08-11T15:31:30;101956.13;;;33.06;31.34
47104;BME280;32853;52.164;5.400;2022-08-11T15:34:12;101959.38;;;33.02;31.63
47104;BME280;32853;52.164;5.400;2022-08-11T15:37:02;101888.44;;;32.75;31.92
47104;BME280;32853;52.164;5.400;2022-08-11T15:40:00;101845.94;;;32.30;31.96
47104;BME280;32853;52.164;5.400;2022-08-11T15:43:07;101955.97;;;33.45;32.22
47104;BME280;32853;52.164;5.400;2022-08-11T15:45:54;101949.53;;;33.23;32.15
47104;BME280;32853;52.164;5.400;2022-08-11T15:48:33;101924.66;;;33.05;32.50
47104;BME280;32853;52.164;5.400;2022-08-11T15:51:13;101807.78;;;31.86;33.23
47104;BME280;32853;52.164;5.400;2022-08-11T15:53:56;101930.03;;;33.28;32.92
47104;BME280;32853;52.164;5.400;2022-08-11T15:56:23;101927.25;;;33.13;32.75
47104;BME280;32853;52.164;5.400;2022-08-11T15:58:51;101925.97;;;33.24;32.43
47104;BME280;32853;52.164;5.400;2022-08-11T16:01:36;101934.78;;;33.26;32.74
47104;BME280;32853;52.164;5.400;2022-08-11T16:04:24;101900.91;;;32.61;32.06
47104;BME280;32853;52.164;5.400;2022-08-11T16:07:04;101923.22;;;32.41;32.75
47104;BME280;32853;52.164;5.400;2022-08-11T16:09:31;101926.84;;;32.79;33.00
47104;BME280;32853;52.164;5.400;2022-08-11T16:12:01;101890.25;;;32.37;32.95
47104;BME280;32853;52.164;5.400;2022-08-11T16:14:29;101863.50;;;32.34;33.46
47104;BME280;32853;52.164;5.400;2022-08-11T16:17:13;101920.75;;;32.77;32.80
47104;BME280;32853;52.164;5.400;2022-08-11T16:19:42;101870.41;;;32.36;33.32
47104;BME280;32853;52.164;5.400;2022-08-11T16:22:11;101913.41;;;32.40;33.75
47104;BME280;32853;52.164;5.400;2022-08-11T16:25:04;101913.66;;;32.76;33.38
47104;BME280;32853;52.164;5.400;2022-08-11T16:27:37;101890.91;;;32.62;33.77